Flight Track Log - Related Links

Times and Time Zones

All times are in EST time to prevent confusion due to time zone crossing. See the CSN6861 flight status page for this flight to view local times or setup timezone preferences in your user account.

Time Position Orientation Groundspeed Altitude Reporting Facility
EST Latitude Longitude Course Direction KTS MPH feet Rate Location/Type
Mon 08:04:00 PM 43.5808 86.4808 246° West  Level Estimated
Mon 08:05:00 PM 43.5394 86.3573 245° Southwest  Level Estimated
Mon 08:06:00 PM 43.4979 86.2341 245° Southwest  Level Estimated
Mon 08:07:00 PM 43.4562 86.1110 245° Southwest  Level Estimated
Mon 08:08:00 PM 43.4144 85.9881 245° Southwest  Level Estimated
Mon 08:09:00 PM 43.3725 85.8653 245° Southwest  Level Estimated
Mon 08:10:00 PM 43.3305 85.7427 245° Southwest  Level Estimated
Mon 08:11:00 PM 43.2883 85.6203 245° Southwest  Level Estimated
Mon 08:12:00 PM 43.2460 85.4981 245° Southwest  Level Estimated
Mon 08:13:00 PM 43.2035 85.3760 245° Southwest  Level Estimated
Mon 08:14:00 PM 43.1610 85.2541 244° Southwest  Level Estimated
Mon 08:15:00 PM 43.1183 85.1324 244° Southwest  Level Estimated
Mon 08:16:00 PM 43.0754 85.0108 244° Southwest  Level Estimated
Mon 08:17:00 PM 43.0325 84.8894 244° Southwest  Level Estimated
Mon 08:18:00 PM 42.9894 84.7682 244° Southwest  Level Estimated
Mon 08:19:00 PM 42.9462 84.6472 244° Southwest  Level Estimated
Mon 08:20:00 PM 42.9028 84.5263 244° Southwest  Level Estimated
Mon 08:21:00 PM 42.8594 84.4056 244° Southwest  Level Estimated
Mon 08:22:00 PM 42.8158 84.2850 244° Southwest  Level Estimated
Mon 08:23:00 PM 42.7721 84.1647 244° Southwest  Level Estimated
Mon 08:24:00 PM 42.7282 84.0445 244° Southwest  Level Estimated
Mon 08:25:00 PM 42.6842 83.9244 244° Southwest  Level Estimated
Mon 08:26:00 PM 42.6401 83.8046 243° Southwest  Level Estimated
Mon 08:27:00 PM 42.5959 83.6849 243° Southwest  Level Estimated
Mon 08:28:00 PM 42.5516 83.5654 243° Southwest  Level Estimated
Mon 08:29:00 PM 42.5071 83.4460 243° Southwest  Level Estimated
Mon 08:30:00 PM 42.4625 83.3268 243° Southwest  Level Estimated
Mon 08:31:00 PM 42.4178 83.2078 243° Southwest  Level Estimated
Mon 08:32:00 PM 42.3730 83.0890 243° Southwest  Level Estimated
Mon 08:33:00 PM 42.3280 82.9703 243° Southwest  Level Estimated
Mon 08:34:00 PM 42.2829 82.8518 243° Southwest  Level Estimated
Mon 08:35:00 PM 42.2377 82.7335 243° Southwest  Level Estimated
Mon 08:36:00 PM 42.1924 82.6153 243° Southwest  Level Estimated
Mon 08:37:00 PM 42.1469 82.4973 243° Southwest  Level Estimated
Mon 08:38:00 PM 42.1013 82.3795 242° Southwest  Level Estimated
Mon 08:39:00 PM 42.0556 82.2619 242° Southwest  Level Estimated
Mon 08:40:00 PM 42.0098 82.1444 242° Southwest  Level Estimated
Mon 08:41:00 PM 41.9639 82.0271 242° Southwest  Level Estimated
Mon 08:42:00 PM 41.9179 81.9099 242° Southwest  Level Estimated
Mon 08:43:00 PM 41.8717 81.7930 242° Southwest  Level Estimated
Mon 08:44:00 PM 41.8254 81.6762 242° Southwest  Level Estimated
Mon 08:45:00 PM 41.7790 81.5595 242° Southwest  Level Estimated
Mon 08:46:00 PM 41.7325 81.4431 242° Southwest  Level Estimated
Mon 08:47:00 PM 41.6858 81.3268 242° Southwest  Level Estimated
Mon 08:48:00 PM 41.6391 81.2106 242° Southwest  Level Estimated
Mon 08:49:00 PM 41.5922 81.0947 242° Southwest  Level Estimated
Mon 08:50:00 PM 41.5452 80.9789 242° Southwest  Level Estimated
Mon 08:51:00 PM 41.4981 80.8633 241° Southwest  Level Estimated
Mon 08:52:00 PM 41.4509 80.7478 241° Southwest  Level Estimated
Mon 08:53:00 PM 41.4035 80.6325 241° Southwest  Level Estimated
Mon 08:54:00 PM 41.3561 80.5174 241° Southwest  Level Estimated
Mon 08:55:00 PM 41.3085 80.4025 241° Southwest  Level Estimated
Mon 08:56:00 PM 41.2625 80.2917 241° Southwest  Level Estimated
Mon 08:57:00 PM 41.2625 80.2917 270° West  Level Estimated
Mon 08:58:00 PM 41.2625 80.2917 270° West  Level Estimated
Mon 08:59:00 PM 41.2625 80.2917 270° West  Level Estimated
Mon 09:00:00 PM 41.2625 80.2917 270° West  Level Estimated
Mon 09:01:00 PM 41.2625 80.2917 270° West  Level Estimated
Mon 09:02:00 PM 41.2625 80.2917 270° West  Level Estimated
Mon 09:03:00 PM 41.2625 80.2917 270° West  Level Estimated
Mon 09:04:00 PM 41.2625 80.2917 270° West  Level Estimated
Mon 09:05:00 PM 41.2625 80.2917 270° West  Level Estimated
Mon 09:06:00 PM 41.2625 80.2917 270° West  Level Estimated

Login

Don't have an account? Register now (free) for customized features, flight alerts, and more!